createdAt,value
2023-05-05T00:01:06.156Z,57.67
2023-05-05T00:03:34.332Z,57.87
2023-05-05T00:06:00.825Z,58.01
2023-05-05T00:08:28.395Z,57.47
2023-05-05T00:10:55.910Z,58.06
2023-05-05T00:13:22.471Z,58.01
2023-05-05T00:15:50.938Z,58.38
2023-05-05T00:18:17.888Z,59.43
2023-05-05T00:20:46.962Z,57.98
2023-05-05T00:23:14.726Z,60.40
2023-05-05T00:25:41.028Z,59.29
2023-05-05T00:28:07.367Z,59.41
2023-05-05T00:30:34.556Z,59.31
2023-05-05T00:33:01.405Z,59.65
2023-05-05T00:35:27.741Z,59.82
2023-05-05T00:37:55.151Z,59.75
2023-05-05T00:40:21.661Z,60.38
2023-05-05T00:42:50.623Z,60.14
2023-05-05T00:45:18.552Z,60.83
2023-05-05T00:47:52.493Z,61.01
2023-05-05T00:50:24.332Z,60.96
2023-05-05T00:52:54.051Z,60.88
2023-05-05T00:55:20.687Z,60.89
2023-05-05T00:57:48.599Z,61.63
2023-05-05T01:00:15.473Z,61.56
2023-05-05T01:02:42.228Z,61.75
2023-05-05T01:05:10.007Z,61.55
2023-05-05T01:08:13.545Z,61.98
2023-05-05T01:10:52.908Z,62.57
2023-05-05T01:13:31.391Z,62.23
2023-05-05T01:16:24.882Z,62.73
2023-05-05T01:19:17.105Z,62.10
2023-05-05T01:21:48.254Z,62.52
2023-05-05T01:24:23.447Z,62.75
2023-05-05T01:27:16.122Z,62.37
2023-05-05T01:30:12.764Z,62.87
2023-05-05T01:32:44.547Z,62.95
2023-05-05T01:35:29.827Z,63.06
2023-05-05T01:38:05.579Z,63.08
2023-05-05T01:40:37.639Z,62.50
2023-05-05T01:43:07.393Z,62.08
2023-05-05T01:45:36.711Z,61.55
2023-05-05T01:48:05.222Z,62.63
2023-05-05T01:50:31.948Z,62.73
2023-05-05T01:52:59.329Z,63.15
2023-05-05T01:55:27.959Z,63.61
2023-05-05T01:57:57.031Z,63.63
2023-05-05T02:00:25.050Z,64.07
2023-05-05T02:02:54.641Z,63.99
2023-05-05T02:05:23.658Z,63.69
2023-05-05T02:07:52.932Z,64.13
2023-05-05T02:10:19.225Z,64.12
2023-05-05T02:12:47.440Z,65.16
2023-05-05T02:15:16.404Z,64.38
2023-05-05T02:17:43.894Z,64.60
2023-05-05T02:20:15.962Z,64.52
2023-05-05T02:22:42.415Z,64.62
2023-05-05T02:25:09.717Z,64.49
2023-05-05T02:27:38.068Z,64.51
2023-05-05T02:30:11.218Z,64.91
2023-05-05T02:32:53.672Z,64.82
2023-05-05T02:35:24.233Z,64.78
2023-05-05T02:37:56.027Z,65.03
2023-05-05T02:40:26.350Z,64.80
2023-05-05T02:42:54.584Z,64.96
2023-05-05T02:45:23.236Z,62.15
2023-05-05T02:47:49.628Z,62.33
2023-05-05T02:50:16.044Z,60.12
2023-05-05T02:52:42.980Z,58.75
2023-05-05T02:55:09.735Z,57.63
2023-05-05T02:58:04.216Z,58.00
2023-05-05T03:01:01.227Z,57.44
2023-05-05T03:03:40.862Z,57.46
2023-05-05T03:06:16.605Z,56.40
2023-05-05T03:08:49.869Z,57.27
2023-05-05T03:11:35.777Z,56.27
2023-05-05T03:14:18.290Z,56.06
2023-05-05T03:16:46.290Z,56.11
2023-05-05T03:19:16.229Z,55.40
2023-05-05T03:21:42.984Z,56.08
2023-05-05T03:24:19.653Z,55.86
2023-05-05T03:26:47.756Z,56.26
2023-05-05T03:29:15.116Z,55.97
2023-05-05T03:31:41.938Z,55.62
2023-05-05T03:34:08.763Z,56.49
2023-05-05T03:36:35.767Z,55.76
2023-05-05T03:39:02.129Z,56.98
2023-05-05T03:41:28.394Z,57.33
2023-05-05T03:43:54.744Z,56.54
2023-05-05T03:46:21.219Z,57.50
2023-05-05T03:48:48.395Z,57.41
2023-05-05T03:51:14.988Z,59.27
2023-05-05T03:53:41.553Z,59.12
2023-05-05T03:56:08.046Z,60.73
2023-05-05T03:58:34.337Z,60.62
2023-05-05T04:01:00.676Z,61.86
2023-05-05T04:03:27.191Z,61.89
2023-05-05T04:05:53.599Z,61.44
2023-05-05T04:08:19.984Z,61.40
2023-05-05T04:10:46.525Z,61.94
2023-05-05T04:13:12.829Z,62.47
2023-05-05T04:15:44.425Z,62.75
2023-05-05T04:18:10.801Z,61.61
2023-05-05T04:20:37.117Z,63.13
2023-05-05T04:23:03.419Z,61.33
2023-05-05T04:25:29.783Z,62.80
2023-05-05T04:27:56.322Z,62.98
2023-05-05T04:30:22.541Z,62.01
2023-05-05T04:32:48.879Z,61.48
2023-05-05T04:35:15.416Z,61.02
2023-05-05T04:37:41.708Z,60.79
2023-05-05T04:40:09.165Z,61.84
2023-05-05T04:42:36.512Z,61.62
2023-05-05T04:45:02.894Z,60.59
2023-05-05T04:47:29.294Z,61.17
2023-05-05T04:49:56.037Z,61.29
2023-05-05T04:52:22.550Z,60.95
2023-05-05T04:54:48.847Z,62.50
2023-05-05T04:57:15.167Z,61.18
2023-05-05T04:59:41.486Z,62.38
2023-05-05T05:02:07.856Z,61.12
2023-05-05T05:04:34.165Z,60.64
2023-05-05T05:07:01.458Z,60.54
2023-05-05T05:09:27.761Z,60.50
2023-05-05T05:11:54.092Z,60.02
2023-05-05T05:14:20.384Z,60.15
2023-05-05T05:16:51.001Z,60.11
2023-05-05T05:19:17.454Z,60.06
2023-05-05T05:21:43.731Z,60.24
2023-05-05T05:24:11.456Z,61.26
2023-05-05T05:26:38.450Z,60.19
2023-05-05T05:29:04.817Z,59.58
2023-05-05T05:31:31.194Z,59.71
2023-05-05T05:33:57.508Z,59.15
2023-05-05T05:36:23.816Z,58.78
2023-05-05T05:38:50.068Z,58.96
2023-05-05T05:41:16.875Z,59.17
2023-05-05T05:43:43.171Z,59.37
2023-05-05T05:46:09.548Z,59.09
2023-05-05T05:48:35.946Z,59.12
2023-05-05T05:51:02.435Z,59.15
2023-05-05T05:53:28.732Z,58.97
2023-05-05T05:55:55.066Z,59.35
2023-05-05T05:58:21.397Z,59.62
2023-05-05T06:00:48.508Z,59.29
2023-05-05T06:03:14.978Z,58.77
2023-05-05T06:05:41.620Z,59.46
2023-05-05T06:08:07.833Z,59.39
2023-05-05T06:10:34.315Z,59.19
2023-05-05T06:13:00.995Z,58.33
2023-05-05T06:15:27.364Z,58.64
2023-05-05T06:17:53.780Z,58.30
2023-05-05T06:20:20.223Z,58.70
2023-05-05T06:22:46.534Z,57.94
2023-05-05T06:25:12.833Z,57.97
2023-05-05T06:27:39.140Z,58.23
2023-05-05T06:30:09.647Z,58.19
2023-05-05T06:32:36.184Z,57.96
2023-05-05T06:35:02.505Z,57.80
2023-05-05T06:37:28.789Z,57.79
2023-05-05T06:39:55.159Z,57.63
2023-05-05T06:42:21.451Z,57.22
2023-05-05T06:44:47.735Z,57.35
2023-05-05T06:47:14.071Z,56.69
2023-05-05T06:49:40.298Z,55.74
2023-05-05T06:52:08.170Z,55.24
2023-05-05T06:54:34.508Z,55.27
2023-05-05T06:57:00.777Z,55.26
2023-05-05T06:59:27.074Z,55.14
2023-05-05T07:01:53.366Z,54.31
2023-05-05T07:04:19.678Z,54.18
2023-05-05T07:06:46.198Z,55.16
2023-05-05T07:09:12.668Z,54.55
2023-05-05T07:11:39.066Z,54.67
2023-05-05T07:14:05.347Z,54.54
2023-05-05T07:16:34.529Z,54.16
2023-05-05T07:19:00.932Z,53.57
2023-05-05T07:21:27.158Z,53.69
2023-05-05T07:23:53.445Z,53.45
2023-05-05T07:26:19.881Z,53.08
2023-05-05T07:28:46.249Z,53.53
2023-05-05T07:31:12.548Z,53.30
2023-05-05T07:33:38.959Z,52.31
2023-05-05T07:36:05.747Z,52.23
2023-05-05T07:38:32.012Z,51.12
2023-05-05T07:40:58.232Z,49.19
2023-05-05T07:43:24.515Z,44.88
2023-05-05T07:45:50.925Z,41.44
2023-05-05T07:48:17.288Z,38.49
2023-05-05T07:50:43.582Z,36.78
2023-05-05T07:53:14.605Z,35.86
2023-05-05T07:55:41.855Z,36.19
2023-05-05T07:58:08.514Z,37.35
2023-05-05T08:00:35.025Z,37.80
2023-05-05T08:03:01.381Z,37.79
2023-05-05T08:05:27.968Z,39.08
2023-05-05T08:07:54.500Z,39.54
2023-05-05T08:10:22.172Z,39.32
2023-05-05T08:12:48.589Z,38.67
2023-05-05T08:15:14.898Z,38.84
2023-05-05T08:17:52.251Z,40.54
2023-05-05T08:20:20.108Z,40.38
2023-05-05T08:22:47.004Z,40.83
2023-05-05T08:25:14.054Z,39.39
2023-05-05T08:27:41.689Z,37.24
2023-05-05T08:30:09.257Z,34.53
2023-05-05T08:32:35.632Z,33.07
2023-05-05T08:35:05.403Z,32.30
2023-05-05T08:37:32.427Z,31.63
2023-05-05T08:39:58.901Z,33.16
2023-05-05T08:42:36.062Z,30.04
2023-05-05T08:45:04.548Z,29.90
2023-05-05T08:47:32.259Z,31.08
2023-05-05T08:49:59.113Z,32.02
2023-05-05T08:52:32.647Z,33.96
2023-05-05T08:55:13.967Z,33.14
2023-05-05T08:57:52.322Z,33.18
2023-05-05T09:00:22.318Z,31.79
2023-05-05T09:02:49.481Z,31.56
2023-05-05T09:05:16.726Z,31.50
2023-05-05T09:07:44.209Z,32.16
2023-05-05T09:10:12.001Z,32.76
2023-05-05T09:12:41.968Z,31.62
2023-05-05T09:15:10.428Z,32.04
2023-05-05T09:17:37.544Z,31.15
2023-05-05T09:20:14.037Z,29.46
2023-05-05T09:22:47.744Z,30.57
2023-05-05T09:25:16.389Z,30.41
2023-05-05T09:27:48.187Z,30.25
2023-05-05T09:30:25.177Z,29.99
2023-05-05T09:32:54.534Z,30.42
2023-05-05T09:35:22.274Z,27.71
2023-05-05T09:37:48.757Z,26.20
2023-05-05T09:40:17.935Z,27.13
2023-05-05T09:42:44.708Z,27.69
2023-05-05T09:45:17.314Z,28.73
2023-05-05T09:47:45.811Z,27.91
2023-05-05T09:50:16.005Z,26.05
2023-05-05T09:52:46.203Z,26.46
2023-05-05T09:55:18.843Z,26.93
2023-05-05T09:57:47.214Z,27.50
2023-05-05T10:00:14.486Z,28.30
2023-05-05T10:02:41.777Z,27.67
2023-05-05T10:05:13.360Z,26.42
2023-05-05T10:07:41.222Z,26.39
2023-05-05T10:10:10.310Z,28.30
2023-05-05T10:12:37.897Z,28.51
2023-05-05T10:15:06.460Z,29.43
2023-05-05T10:17:36.428Z,27.27
2023-05-05T10:20:04.064Z,28.54
2023-05-05T10:22:35.059Z,30.90
2023-05-05T10:25:13.484Z,31.13
2023-05-05T10:27:50.513Z,30.83
2023-05-05T10:30:22.671Z,31.76
2023-05-05T10:33:13.244Z,33.09
2023-05-05T10:35:46.209Z,32.27
2023-05-05T10:38:13.249Z,34.64
2023-05-05T10:40:46.502Z,32.89
2023-05-05T10:43:14.379Z,30.54
2023-05-05T10:45:41.679Z,30.48
2023-05-05T10:48:14.351Z,31.77
2023-05-05T10:50:51.072Z,33.12
2023-05-05T10:53:26.028Z,34.66
2023-05-05T10:56:16.912Z,36.48
2023-05-05T10:58:55.626Z,37.16
2023-05-05T11:01:36.015Z,36.09
2023-05-05T11:04:22.547Z,35.70
2023-05-05T11:07:14.371Z,34.57
2023-05-05T11:09:58.147Z,33.50
2023-05-05T11:12:24.525Z,32.91
2023-05-05T11:15:27.852Z,32.13
2023-05-05T11:17:58.463Z,30.60
2023-05-05T11:20:48.029Z,31.33
2023-05-05T11:23:20.333Z,31.87
2023-05-05T11:25:47.089Z,30.94
2023-05-05T11:28:19.324Z,30.37
2023-05-05T11:30:54.604Z,29.21
2023-05-05T11:33:25.533Z,29.06
2023-05-05T11:36:06.762Z,28.79
2023-05-05T11:38:36.111Z,28.72
2023-05-05T11:41:33.022Z,27.82
2023-05-05T11:44:15.660Z,28.60
2023-05-05T11:46:51.203Z,26.67
2023-05-05T11:49:31.478Z,26.85
2023-05-05T11:52:04.346Z,26.53
2023-05-05T11:54:31.668Z,26.72
2023-05-05T11:57:01.922Z,25.65
2023-05-05T11:59:28.214Z,26.77
2023-05-05T12:01:54.571Z,26.54
2023-05-05T12:04:20.967Z,25.93
2023-05-05T12:06:48.874Z,25.29
2023-05-05T12:09:16.963Z,24.77
2023-05-05T12:11:53.577Z,24.95
2023-05-05T12:14:20.887Z,25.71
2023-05-05T12:16:56.723Z,24.82
2023-05-05T12:19:23.844Z,26.45
2023-05-05T12:21:50.585Z,28.23
2023-05-05T12:24:16.919Z,29.19
2023-05-05T12:26:43.244Z,29.19
2023-05-05T12:29:09.558Z,28.04
2023-05-05T12:31:37.364Z,27.72
2023-05-05T12:34:04.767Z,27.53
2023-05-05T12:36:33.588Z,27.45
2023-05-05T12:39:00.389Z,26.47
2023-05-05T12:41:27.681Z,25.54
2023-05-05T12:43:58.347Z,25.81
2023-05-05T12:46:25.638Z,25.01
2023-05-05T12:49:05.659Z,26.17
2023-05-05T12:51:33.603Z,26.65
2023-05-05T12:54:11.579Z,27.08
2023-05-05T12:56:42.880Z,28.28
2023-05-05T12:59:11.794Z,26.68
2023-05-05T13:01:52.291Z,25.32
2023-05-05T13:04:20.937Z,25.37
2023-05-05T13:06:49.219Z,25.49
2023-05-05T13:09:33.833Z,25.52
2023-05-05T13:12:02.781Z,25.87
2023-05-05T13:14:30.756Z,26.65
2023-05-05T13:16:57.386Z,26.09
2023-05-05T13:19:27.590Z,26.59
2023-05-05T13:21:58.212Z,26.93
2023-05-05T13:24:37.988Z,26.04
2023-05-05T13:27:09.257Z,26.55
2023-05-05T13:29:35.776Z,27.11
2023-05-05T13:32:02.157Z,26.70
2023-05-05T13:34:28.707Z,26.18
2023-05-05T13:36:55.117Z,26.44
2023-05-05T13:39:21.574Z,25.78
2023-05-05T13:41:48.031Z,24.70
2023-05-05T13:44:14.437Z,25.68
2023-05-05T13:46:42.228Z,25.56
2023-05-05T13:49:08.643Z,27.19
2023-05-05T13:51:35.162Z,26.64
2023-05-05T13:54:01.594Z,26.82
2023-05-05T13:56:28.012Z,26.22
2023-05-05T13:58:54.580Z,26.42
2023-05-05T14:01:21.103Z,26.57
2023-05-05T14:03:47.451Z,26.44
2023-05-05T14:06:13.878Z,25.69
2023-05-05T14:08:40.244Z,26.01
2023-05-05T14:11:06.679Z,26.25
2023-05-05T14:13:32.993Z,26.48
2023-05-05T14:15:59.463Z,27.29
2023-05-05T14:18:25.871Z,26.43
2023-05-05T14:20:52.293Z,26.73
2023-05-05T14:23:18.584Z,26.18
2023-05-05T14:25:45.050Z,25.76
2023-05-05T14:28:11.359Z,26.08
2023-05-05T14:30:37.699Z,26.60
2023-05-05T14:33:04.104Z,26.96
2023-05-05T14:35:31.152Z,26.66
2023-05-05T14:37:57.477Z,26.21
2023-05-05T14:40:23.824Z,26.51
2023-05-05T14:42:50.818Z,26.61
2023-05-05T14:45:17.863Z,26.20
2023-05-05T14:47:44.338Z,26.07
2023-05-05T14:50:10.978Z,25.98
2023-05-05T14:52:40.172Z,27.02
2023-05-05T14:55:07.745Z,26.53
2023-05-05T14:57:34.498Z,26.63
2023-05-05T15:00:00.889Z,26.79
2023-05-05T15:02:27.257Z,27.32
2023-05-05T15:04:53.603Z,28.10
2023-05-05T15:07:20.497Z,28.45
2023-05-05T15:09:46.944Z,29.00
2023-05-05T15:12:13.420Z,28.91
2023-05-05T15:14:39.918Z,29.24
2023-05-05T15:17:06.502Z,30.03
2023-05-05T15:19:32.815Z,30.55
2023-05-05T15:21:59.140Z,31.30
2023-05-05T15:24:25.921Z,31.81
2023-05-05T15:26:52.223Z,31.83
2023-05-05T15:29:18.531Z,32.04
2023-05-05T15:31:44.840Z,32.09
2023-05-05T15:34:11.192Z,32.20
2023-05-05T15:36:37.470Z,32.45
2023-05-05T15:39:04.356Z,32.39
2023-05-05T15:41:30.785Z,33.19
2023-05-05T15:43:57.373Z,34.50
2023-05-05T15:46:23.748Z,35.32
2023-05-05T15:48:50.157Z,36.91
2023-05-05T15:51:16.427Z,37.66
2023-05-05T15:53:42.691Z,37.90
2023-05-05T15:56:09.018Z,38.86
2023-05-05T15:58:36.580Z,39.29
2023-05-05T16:01:02.962Z,40.28
2023-05-05T16:03:29.464Z,40.11
2023-05-05T16:05:55.860Z,40.40
2023-05-05T16:08:22.188Z,40.46
2023-05-05T16:10:48.550Z,40.37
2023-05-05T16:13:15.025Z,40.49
2023-05-05T16:15:41.402Z,41.51
2023-05-05T16:18:07.745Z,41.24
2023-05-05T16:20:34.132Z,42.19
2023-05-05T16:23:00.521Z,42.50
2023-05-05T16:25:26.910Z,43.49
2023-05-05T16:27:56.504Z,43.84
2023-05-05T16:30:22.814Z,44.70
2023-05-05T16:32:51.169Z,43.72
2023-05-05T16:35:17.896Z,44.65
2023-05-05T16:37:44.167Z,45.34
2023-05-05T16:40:11.318Z,46.09
2023-05-05T16:42:37.622Z,46.50
2023-05-05T16:45:04.356Z,47.99
2023-05-05T16:47:30.652Z,48.72
2023-05-05T16:49:57.103Z,50.90
2023-05-05T16:52:23.448Z,50.98
2023-05-05T16:54:55.305Z,52.96
2023-05-05T16:57:22.377Z,52.93
2023-05-05T16:59:49.098Z,54.42
2023-05-05T17:02:15.476Z,54.05
2023-05-05T17:04:41.811Z,54.88
2023-05-05T17:07:08.173Z,56.22
2023-05-05T17:09:34.468Z,55.48
2023-05-05T17:12:00.689Z,56.76
2023-05-05T17:14:27.298Z,58.94
2023-05-05T17:16:54.417Z,58.49
2023-05-05T17:19:20.706Z,56.83
2023-05-05T17:21:47.012Z,55.76
2023-05-05T17:24:13.299Z,56.17
2023-05-05T17:26:40.457Z,56.36
2023-05-05T17:29:06.908Z,56.30
2023-05-05T17:31:33.224Z,56.50
2023-05-05T17:33:59.531Z,56.35
2023-05-05T17:36:25.745Z,55.94
2023-05-05T17:38:52.003Z,55.71
2023-05-05T17:41:18.226Z,55.21
2023-05-05T17:43:44.504Z,54.69
2023-05-05T17:46:10.753Z,55.39
2023-05-05T17:48:37.102Z,54.23
2023-05-05T17:51:03.364Z,54.53
2023-05-05T17:53:29.654Z,54.45
2023-05-05T17:55:55.907Z,55.19
2023-05-05T17:58:22.231Z,55.78
2023-05-05T18:00:48.460Z,55.87
2023-05-05T18:03:14.880Z,56.19
2023-05-05T18:05:41.230Z,57.31
2023-05-05T18:08:07.509Z,56.13
2023-05-05T18:10:33.825Z,57.81
2023-05-05T18:13:00.149Z,57.22
2023-05-05T18:15:26.507Z,56.96
2023-05-05T18:17:53.817Z,57.63
2023-05-05T18:20:20.253Z,58.17
2023-05-05T18:22:46.843Z,57.12
2023-05-05T18:25:13.368Z,56.67
2023-05-05T18:27:42.036Z,57.16
2023-05-05T18:30:08.682Z,57.57
2023-05-05T18:32:35.049Z,56.51
2023-05-05T18:35:01.372Z,56.29
2023-05-05T18:37:27.924Z,56.04
2023-05-05T18:39:54.289Z,56.04
2023-05-05T18:42:20.576Z,55.68
2023-05-05T18:44:46.862Z,57.14
2023-05-05T18:47:13.294Z,56.65
2023-05-05T18:49:39.642Z,57.01
2023-05-05T18:52:06.003Z,56.93
2023-05-05T18:54:32.284Z,56.80
2023-05-05T18:56:59.427Z,56.45
2023-05-05T18:59:25.780Z,57.05
2023-05-05T19:01:52.284Z,57.15
2023-05-05T19:04:30.133Z,57.15
2023-05-05T19:06:57.565Z,57.63
2023-05-05T19:09:23.868Z,57.88
2023-05-05T19:11:50.531Z,57.73
2023-05-05T19:14:17.564Z,58.05
2023-05-05T19:16:44.023Z,57.79
2023-05-05T19:19:11.070Z,58.58
2023-05-05T19:21:37.431Z,58.99
2023-05-05T19:24:03.771Z,59.64
2023-05-05T19:26:30.189Z,59.65
2023-05-05T19:28:56.490Z,59.88
2023-05-05T19:31:27.388Z,60.76
2023-05-05T19:34:01.719Z,60.63
2023-05-05T19:36:28.838Z,60.83
2023-05-05T19:38:55.754Z,60.92
2023-05-05T19:41:22.078Z,61.57
2023-05-05T19:43:49.778Z,62.07
2023-05-05T19:46:17.123Z,62.53
2023-05-05T19:48:44.009Z,62.75
2023-05-05T19:51:10.312Z,62.94
2023-05-05T19:53:36.582Z,62.98
2023-05-05T19:56:04.692Z,63.17
2023-05-05T19:58:31.327Z,63.30
2023-05-05T20:00:57.641Z,63.28
2023-05-05T20:03:24.085Z,63.94
2023-05-05T20:05:50.464Z,64.18
2023-05-05T20:08:16.719Z,64.57
2023-05-05T20:10:43.002Z,64.68
2023-05-05T20:13:09.381Z,64.77
2023-05-05T20:15:35.770Z,65.05
2023-05-05T20:18:02.260Z,65.05
2023-05-05T20:20:28.586Z,64.71
2023-05-05T20:22:54.884Z,65.24
2023-05-05T20:25:21.543Z,65.47
2023-05-05T20:27:47.878Z,65.54
2023-05-05T20:30:14.409Z,65.84
2023-05-05T20:32:41.304Z,65.87
2023-05-05T20:35:08.338Z,66.58
2023-05-05T20:37:34.640Z,66.48
2023-05-05T20:40:01.008Z,67.13
2023-05-05T20:42:27.669Z,66.70
2023-05-05T20:44:54.096Z,67.35
2023-05-05T20:47:20.593Z,67.44
2023-05-05T20:49:46.880Z,67.65
2023-05-05T20:52:13.200Z,68.14
2023-05-05T20:54:39.687Z,68.07
2023-05-05T20:57:07.440Z,68.48
2023-05-05T20:59:33.750Z,68.65
2023-05-05T21:02:00.124Z,68.77
2023-05-05T21:04:26.368Z,69.11
2023-05-05T21:06:52.682Z,69.05
2023-05-05T21:09:21.250Z,69.09
2023-05-05T21:11:48.677Z,69.08
2023-05-05T21:14:15.004Z,69.22
2023-05-05T21:16:41.638Z,69.24
2023-05-05T21:19:08.012Z,69.48
2023-05-05T21:21:34.283Z,68.70
2023-05-05T21:24:00.811Z,69.85
2023-05-05T21:26:27.157Z,69.21
2023-05-05T21:28:53.431Z,70.11
2023-05-05T21:31:22.432Z,69.75
2023-05-05T21:33:49.209Z,70.14
2023-05-05T21:36:17.405Z,70.40
2023-05-05T21:38:43.708Z,70.86
2023-05-05T21:41:09.987Z,70.59
2023-05-05T21:43:36.547Z,71.56
2023-05-05T21:46:04.539Z,72.06
2023-05-05T21:48:31.722Z,72.13
2023-05-05T21:50:58.061Z,72.26
2023-05-05T21:53:24.661Z,72.88
2023-05-05T21:55:51.492Z,73.79
2023-05-05T21:58:17.855Z,72.99
2023-05-05T22:00:44.920Z,73.71
2023-05-05T22:03:11.323Z,74.27
2023-05-05T22:05:38.151Z,74.43
2023-05-05T22:08:04.573Z,74.01
2023-05-05T22:10:30.936Z,74.28
2023-05-05T22:12:57.928Z,73.99
2023-05-05T22:15:27.603Z,74.72
2023-05-05T22:17:56.374Z,74.07
2023-05-05T22:20:23.070Z,74.47
2023-05-05T22:22:49.342Z,74.54
2023-05-05T22:25:15.643Z,74.89
2023-05-05T22:27:41.978Z,74.82
2023-05-05T22:30:08.769Z,75.08
2023-05-05T22:32:35.099Z,75.54
2023-05-05T22:35:01.426Z,75.06
2023-05-05T22:37:28.034Z,74.54
2023-05-05T22:39:54.316Z,74.82
2023-05-05T22:42:20.829Z,75.03
2023-05-05T22:44:48.621Z,75.41
2023-05-05T22:47:15.080Z,75.37
2023-05-05T22:49:41.508Z,74.69
2023-05-05T22:52:08.597Z,75.53
2023-05-05T22:54:34.881Z,74.96
2023-05-05T22:57:02.129Z,75.53
2023-05-05T22:59:28.407Z,75.84
2023-05-05T23:01:54.738Z,75.25
2023-05-05T23:04:23.609Z,75.33
2023-05-05T23:06:50.127Z,75.55
2023-05-05T23:09:16.362Z,76.33
2023-05-05T23:11:42.673Z,75.87
2023-05-05T23:14:08.930Z,75.93
2023-05-05T23:16:35.270Z,76.12
2023-05-05T23:19:01.612Z,77.00
2023-05-05T23:21:29.221Z,76.66
2023-05-05T23:23:55.705Z,76.64
2023-05-05T23:26:22.031Z,77.57
2023-05-05T23:28:48.319Z,76.85
2023-05-05T23:31:14.646Z,77.10
2023-05-05T23:33:40.958Z,77.55
2023-05-05T23:36:07.374Z,77.34
2023-05-05T23:38:33.645Z,76.73
2023-05-05T23:40:59.910Z,77.40
2023-05-05T23:43:26.232Z,77.27
2023-05-05T23:45:52.644Z,76.61
2023-05-05T23:48:19.215Z,77.06
2023-05-05T23:50:45.573Z,76.62
2023-05-05T23:53:11.881Z,76.37
2023-05-05T23:55:38.171Z,76.42
2023-05-05T23:58:04.517Z,75.70
